Curwensville, PA (16833)

10:09 AM EST on December 05, 2016 (GMT -0500)
Twinoaks | | Change Station

Elev 1493 ft 40.99 °N, 78.53 °W | Updated 7 seconds ago

Mostly Cloudy
Mostly Cloudy
37.7 °F
Feels Like 32 °F
N
8.0
Wind Variable Wind from West

Today
High -- | Low -- °F
--% Chance of Precip.
Yesterday
High -- | Low -- °F
Precip. -- in
Pressure 30.04 in
Visibility 10.0 miles
Clouds Mostly Cloudy 1900 ft
Mostly Cloudy 3900 ft
Windchill 32 °F
Dew Point 33 °F
Humidity 85%
Rainfall 0.02 in
Snow Depth Not available.
7:23 AM 4:45 PM
Waxing Crescent, 32% visible
METAR KFIG 051454Z AUTO 26008G17KT 230V290 10SM BKN019 BKN039 03/01 A3000 RMK AO2 RAE09 SLP172 P0000 60001 T00330006 52008
Pressure 30.04 in
Visibility 10.0 miles
Clouds Mostly Cloudy 1900 ft
Mostly Cloudy 3900 ft
Windchill 32 °F
Dew Point 33 °F
Humidity 85%
Rainfall 0.02 in
Snow Depth Not available.
7:23 AM 4:45 PM
Waxing Crescent, 32% visible
METAR KFIG 051454Z AUTO 26008G17KT 230V290 10SM BKN019 BKN039 03/01 A3000 RMK AO2 RAE09 SLP172 P0000 60001 T00330006 52008

10-Day Weather Forecast

Almanac

Astronomy

Dec. 05, 2016 Rise Set
Actual Time
Civil Twilight
Nautical Twilight
Astronomical Twilight
Moon
Length of Visible Light
Length of Day
Tomorrow will be .
, % of the Moon is Illuminated

Today's Extremes

State Highs State Lows

Community

WunderPhotos

Upload Photos

1,955,787 photos uploaded!

WunderBlog® & News

Nearby

Air Quality

  Air Quality AQ Index Pollutant
Not available.

Snow Depth

Station Depth Elevation

Earthquake Activity

City Distance Mag. Time & Date
Minimum magnitude displayed is 2.5.

Coastal Water Temperatures

Place Temperature

Stations

Nearby Weather Stations

Station Location Temp. Windchill Dew Point Humidity Wind Precip. Elev Updated Type
                   

Watches & Warnings

There are currently no watches in effect.